Time;durP1;ratioP1;P1;durP2;ratioP2;P2;SDS_P1;SDS_P2;PMS_P1;PMS_P2;Temp;Humidity;BMP_temperature;BMP_pressure;BME280_temperature;BME280_humidity;BME280_pressure;Samples;Min_cycle;Max_cycle;Signal;HPM_P1;HPM_P2
2021/10/25 00:02:20;;;;;;;;;44.50;33.50;;;;;;;;5036541;28;45891;-65
2021/10/25 00:04:45;;;;;;;;;38.50;33.00;;;;;;;;5036417;28;45386;-64
2021/10/25 00:07:11;;;;;;;;;39.00;34.00;;;;;;;;5036993;28;45443;-66
2021/10/25 00:09:36;;;;;;;;;35.50;32.50;;;;;;;;5036943;28;45413;-65
2021/10/25 00:12:01;;;;;;;;;35.50;31.75;;;;;;;;5036239;28;46168;-66
2021/10/25 00:14:27;;;;;;;;;35.50;31.25;;;;;;;;5036094;28;45461;-65
2021/10/25 00:16:52;;;;;;;;;32.75;30.25;;;;;;;;5036545;28;45457;-65
2021/10/25 00:19:18;;;;;;;;;32.75;31.75;;;;;;;;5034856;28;45356;-65
2021/10/25 00:21:43;;;;;;;;;33.25;30.25;;;;;;;;5036285;28;46762;-66
2021/10/25 00:24:08;;;;;;;;;33.00;28.75;;;;;;;;5034482;28;45381;-67
2021/10/25 00:26:34;;;;;;;;;32.25;30.50;;;;;;;;5036077;28;45383;-66
2021/10/25 00:28:59;;;;;;;;;32.75;27.50;;;;;;;;5036133;28;45241;-65
2021/10/25 00:31:25;;;;;;;;;33.00;28.25;;;;;;;;5035791;28;46320;-64
2021/10/25 00:33:50;;;;;;;;;30.75;29.75;;;;;;;;5035754;28;45363;-64
2021/10/25 00:36:16;;;;;;;;;30.75;28.75;;;;;;;;5036331;28;45384;-65
2021/10/25 00:38:41;;;;;;;;;36.50;33.25;;;;;;;;5036462;28;45172;-64
2021/10/25 00:41:07;;;;;;;;;31.00;29.50;;;;;;;;5035785;28;46639;-65
2021/10/25 00:43:32;;;;;;;;;32.25;27.50;;;;;;;;5035488;28;45328;-66
2021/10/25 00:45:58;;;;;;;;;29.25;28.25;;;;;;;;5034228;28;45371;-66
2021/10/25 00:48:23;;;;;;;;;35.50;29.00;;;;;;;;5036047;28;45580;-67
2021/10/25 00:50:48;;;;;;;;;29.75;28.75;;;;;;;;5035657;28;45345;-66
2021/10/25 00:53:13;;;;;;;;;30.75;27.00;;;;;;;;5035842;28;45217;-65
2021/10/25 00:55:39;;;;;;;;;31.50;29.00;;;;;;;;5034234;28;45734;-67
2021/10/25 00:58:05;;;;;;;;;33.00;30.50;;;;;;;;5035833;28;45311;-67
2021/10/25 01:00:31;;;;;;;;;37.50;31.00;;;;;;;;5035429;28;45501;-67
2021/10/25 01:02:56;;;;;;;;;32.75;27.50;;;;;;;;5035451;28;45432;-68
2021/10/25 01:05:21;;;;;;;;;29.75;28.50;;;;;;;;5034585;28;45337;-67
2021/10/25 01:07:50;;;;;;;;;29.50;29.50;;;;;;;;5036554;28;45465;-67
2021/10/25 01:10:16;;;;;;;;;21.00;19.75;;;;;;;;5036108;28;45488;-67
2021/10/25 01:12:41;;;;;;;;;30.00;29.50;;;;;;;;5036297;28;45341;-65
2021/10/25 01:15:07;;;;;;;;;35.50;30.00;;;;;;;;5036016;28;45409;-65
2021/10/25 01:17:32;;;;;;;;;31.75;28.50;;;;;;;;5035753;28;45527;-64
2021/10/25 01:19:59;;;;;;;;;30.00;28.00;;;;;;;;5035391;28;46032;-67
2021/10/25 01:22:24;;;;;;;;;27.75;23.00;;;;;;;;5035655;28;45256;-64
2021/10/25 01:24:50;;;;;;;;;29.50;29.00;;;;;;;;5035354;28;45481;-66
2021/10/25 01:27:16;;;;;;;;;34.00;29.75;;;;;;;;5035798;28;45509;-65
2021/10/25 01:29:41;;;;;;;;;32.50;26.00;;;;;;;;5035083;28;45885;-66
2021/10/25 01:32:06;;;;;;;;;31.00;27.25;;;;;;;;5035107;28;45269;-66
2021/10/25 01:34:31;;;;;;;;;35.50;29.75;;;;;;;;5035250;28;45398;-66
2021/10/25 01:36:57;;;;;;;;;32.00;28.50;;;;;;;;5035373;28;45659;-67
2021/10/25 01:39:22;;;;;;;;;30.50;28.75;;;;;;;;5035172;28;45405;-65
2021/10/25 01:41:47;;;;;;;;;31.50;27.25;;;;;;;;5035486;28;45463;-65
2021/10/25 01:44:13;;;;;;;;;34.00;29.00;;;;;;;;5035334;28;45495;-65
2021/10/25 01:46:41;;;;;;;;;29.25;27.25;;;;;;;;5035283;28;45256;-66
2021/10/25 01:49:06;;;;;;;;;30.00;27.50;;;;;;;;5033410;28;47368;-67
2021/10/25 01:51:31;;;;;;;;;29.75;27.50;;;;;;;;5035057;28;45377;-68
2021/10/25 01:53:56;;;;;;;;;33.25;30.25;;;;;;;;5035105;28;45367;-68
2021/10/25 01:56:23;;;;;;;;;41.75;33.25;;;;;;;;5035134;28;45249;-66
2021/10/25 01:58:48;;;;;;;;;29.25;23.25;;;;;;;;5038761;28;47142;-67
2021/10/25 02:01:17;;;;;;;;;30.00;28.00;;;;;;;;5038276;28;45218;-66
2021/10/25 02:03:42;;;;;;;;;33.50;27.50;;;;;;;;5037081;28;45778;-68
2021/10/25 02:06:07;;;;;;;;;32.75;27.50;;;;;;;;5038552;28;45475;-68
2021/10/25 02:08:32;;;;;;;;;34.75;25.00;;;;;;;;5038214;28;46488;-67
2021/10/25 02:10:57;;;;;;;;;32.75;29.50;;;;;;;;5038360;28;45343;-67
2021/10/25 02:13:23;;;;;;;;;29.75;25.25;;;;;;;;5038504;28;45263;-65
2021/10/25 02:15:48;;;;;;;;;29.75;28.75;;;;;;;;5038867;28;45526;-65
2021/10/25 02:18:14;;;;;;;;;31.00;27.50;;;;;;;;5037933;28;46376;-65
2021/10/25 02:20:40;;;;;;;;;33.25;29.00;;;;;;;;5037962;28;45427;-65
2021/10/25 02:23:05;;;;;;;;;26.75;25.50;;;;;;;;5036775;28;45262;-65
2021/10/25 02:25:31;;;;;;;;;32.25;28.75;;;;;;;;5038431;28;45291;-67
2021/10/25 02:27:56;;;;;;;;;34.25;30.00;;;;;;;;5038077;28;45751;-65
2021/10/25 02:30:21;;;;;;;;;28.75;26.75;;;;;;;;5037908;28;45372;-65
2021/10/25 02:32:47;;;;;;;;;26.00;24.00;;;;;;;;5038254;28;45288;-66
2021/10/25 02:35:12;;;;;;;;;31.50;28.25;;;;;;;;5037922;28;45259;-66
2021/10/25 02:37:37;;;;;;;;;26.00;23.75;;;;;;;;5037607;28;45569;-67
2021/10/25 02:40:03;;;;;;;;;25.50;25.00;;;;;;;;5037740;28;45305;-66
2021/10/25 02:42:28;;;;;;;;;31.00;26.00;;;;;;;;5037969;28;45305;-66
2021/10/25 02:44:54;;;;;;;;;27.50;25.50;;;;;;;;5036505;28;45328;-66
2021/10/25 02:47:19;;;;;;;;;25.75;24.25;;;;;;;;5038021;28;46328;-65
2021/10/25 02:49:45;;;;;;;;;23.75;23.00;;;;;;;;5036121;28;45540;-66
2021/10/25 02:52:10;;;;;;;;;29.00;25.00;;;;;;;;5037855;28;45290;-65
2021/10/25 02:54:35;;;;;;;;;23.75;22.00;;;;;;;;5037848;28;45394;-66
2021/10/25 02:57:00;;;;;;;;;25.75;23.50;;;;;;;;5037712;28;45611;-65
2021/10/25 02:59:26;;;;;;;;;24.75;24.75;;;;;;;;5037437;28;45382;-64
2021/10/25 03:01:51;;;;;;;;;27.50;26.00;;;;;;;;5036554;28;45458;-66
2021/10/25 03:04:17;;;;;;;;;29.00;26.00;;;;;;;;5037930;28;45409;-64
2021/10/25 03:06:42;;;;;;;;;39.50;35.50;;;;;;;;5037355;28;46563;-65
2021/10/25 03:09:08;;;;;;;;;23.50;23.50;;;;;;;;5036146;28;45456;-65
2021/10/25 03:11:34;;;;;;;;;22.75;20.75;;;;;;;;5037353;28;45335;-66
2021/10/25 03:14:00;;;;;;;;;28.25;23.00;;;;;;;;5037672;28;45378;-65
2021/10/25 03:16:25;;;;;;;;;25.00;20.25;;;;;;;;5037249;28;45444;-67
2021/10/25 03:18:50;;;;;;;;;24.00;23.50;;;;;;;;5037326;28;45233;-68
2021/10/25 03:21:17;;;;;;;;;19.75;19.25;;;;;;;;5037284;28;45357;-66
2021/10/25 03:23:42;;;;;;;;;26.50;22.50;;;;;;;;5037312;28;45262;-67
2021/10/25 03:26:07;;;;;;;;;25.00;23.00;;;;;;;;5036973;28;45445;-67
2021/10/25 03:28:33;;;;;;;;;24.50;22.75;;;;;;;;5037178;28;45273;-67
2021/10/25 03:30:58;;;;;;;;;21.75;18.50;;;;;;;;5037198;28;45328;-65
2021/10/25 03:33:24;;;;;;;;;26.75;21.00;;;;;;;;5037563;28;45545;-66
2021/10/25 03:35:49;;;;;;;;;25.50;23.75;;;;;;;;5036880;28;45858;-67
2021/10/25 03:38:16;;;;;;;;;24.00;19.50;;;;;;;;5035475;28;45582;-65
2021/10/25 03:40:45;;;;;;;;;31.00;24.75;;;;;;;;5036803;28;45410;-64
2021/10/25 03:43:10;;;;;;;;;25.00;24.75;;;;;;;;5036803;28;45568;-65
2021/10/25 03:45:40;;;;;;;;;22.75;21.25;;;;;;;;5036576;28;46432;-64
2021/10/25 03:50:34;;;;;;;;;24.00;22.50;;;;;;;;5036584;28;45383;-66
2021/10/25 03:53:07;;;;;;;;;24.75;23.00;;;;;;;;5036892;28;45307;-66
2021/10/25 04:29:35;;;;;;;;;22.00;20.00;;;;;;;;5035727;28;45463;-66
2021/10/25 04:32:06;;;;;;;;;21.00;18.00;;;;;;;;5036015;28;45308;-67
2021/10/25 04:34:32;;;;;;;;;28.50;23.50;;;;;;;;5036322;28;45408;-66
2021/10/25 04:36:57;;;;;;;;;23.00;21.50;;;;;;;;5036159;28;45227;-65
2021/10/25 04:39:22;;;;;;;;;24.00;21.75;;;;;;;;5035942;28;45251;-64
2021/10/25 04:41:48;;;;;;;;;22.25;21.00;;;;;;;;5034664;28;45274;-64
2021/10/25 04:44:13;;;;;;;;;21.25;21.25;;;;;;;;5035982;28;45196;-65
2021/10/25 04:46:38;;;;;;;;;22.25;19.00;;;;;;;;5035786;28;46178;-67
2021/10/25 04:49:03;;;;;;;;;22.75;22.00;;;;;;;;5034312;28;45632;-66
2021/10/25 04:51:31;;;;;;;;;20.75;20.00;;;;;;;;5035912;28;45702;-67
2021/10/25 04:53:56;;;;;;;;;24.00;23.00;;;;;;;;5036217;28;45491;-64
2021/10/25 04:56:22;;;;;;;;;46.75;36.25;;;;;;;;5035427;28;45360;-65
2021/10/25 04:58:47;;;;;;;;;26.00;15.50;;;;;;;;5035703;28;45351;-64
2021/10/25 05:01:12;;;;;;;;;22.25;19.50;;;;;;;;5035692;28;45432;-65
2021/10/25 05:03:37;;;;;;;;;27.50;24.00;;;;;;;;5034696;28;45285;-66
2021/10/25 05:06:07;;;;;;;;;29.00;27.75;;;;;;;;5035408;28;45430;-67
2021/10/25 05:08:32;;;;;;;;;24.75;22.50;;;;;;;;5035467;28;45379;-65
2021/10/25 05:10:57;;;;;;;;;22.75;22.00;;;;;;;;5034159;28;45317;-68
2021/10/25 05:13:23;;;;;;;;;27.00;24.00;;;;;;;;5035605;28;45343;-67
2021/10/25 05:15:48;;;;;;;;;23.00;23.00;;;;;;;;5035146;28;45383;-67
2021/10/25 05:18:13;;;;;;;;;27.00;23.25;;;;;;;;5035286;28;45176;-67
2021/10/25 05:20:39;;;;;;;;;21.75;21.25;;;;;;;;5035452;28;45371;-67
2021/10/25 05:23:04;;;;;;;;;34.50;31.00;;;;;;;;5035553;28;45219;-67
2021/10/25 05:25:30;;;;;;;;;26.50;23.50;;;;;;;;5035428;28;46202;-68
2021/10/25 05:27:55;;;;;;;;;24.75;21.75;;;;;;;;5034226;28;45778;-68
2021/10/25 05:30:21;;;;;;;;;25.75;22.50;;;;;;;;5035149;28;45321;-68
2021/10/25 05:32:46;;;;;;;;;27.25;25.00;;;;;;;;5032985;28;45403;-65
2021/10/25 05:35:11;;;;;;;;;39.75;35.00;;;;;;;;5034498;28;46053;-67
2021/10/25 05:37:37;;;;;;;;;29.50;27.00;;;;;;;;5035036;28;45363;-67
2021/10/25 05:40:03;;;;;;;;;26.00;24.25;;;;;;;;5035114;28;45473;-68
2021/10/25 05:42:28;;;;;;;;;29.00;23.00;;;;;;;;5033916;28;45570;-67
2021/10/25 05:44:53;;;;;;;;;24.75;23.75;;;;;;;;5034510;28;46061;-68
2021/10/25 05:47:18;;;;;;;;;30.25;27.50;;;;;;;;5034734;28;45327;-66
2021/10/25 05:49:45;;;;;;;;;27.75;22.75;;;;;;;;5034822;28;45390;-68
2021/10/25 05:52:10;;;;;;;;;29.75;26.50;;;;;;;;5035154;28;45437;-67
2021/10/25 05:54:37;;;;;;;;;23.25;21.25;;;;;;;;5034538;28;46398;-65
2021/10/25 05:57:02;;;;;;;;;23.25;22.25;;;;;;;;5034840;28;45417;-66
2021/10/25 05:59:28;;;;;;;;;18.25;18.25;;;;;;;;5034028;28;45300;-66
2021/10/25 06:01:59;;;;;;;;;23.75;20.75;;;;;;;;5035082;28;45608;-67
2021/10/25 06:04:26;;;;;;;;;24.50;22.75;;;;;;;;5034545;28;45561;-64
2021/10/25 06:06:51;;;;;;;;;24.25;22.75;;;;;;;;5033282;28;45686;-64
2021/10/25 06:09:16;;;;;;;;;23.00;22.00;;;;;;;;5034460;28;45389;-66
2021/10/25 06:11:42;;;;;;;;;22.25;21.50;;;;;;;;5035143;28;45216;-65
2021/10/25 06:14:10;;;;;;;;;30.25;24.00;;;;;;;;5034699;28;45960;-66
2021/10/25 06:16:42;;;;;;;;;24.00;19.75;;;;;;;;5034939;28;45369;-65
2021/10/25 06:19:10;;;;;;;;;22.50;19.50;;;;;;;;5034852;28;45308;-66
2021/10/25 06:21:36;;;;;;;;;19.75;19.25;;;;;;;;5034809;28;45567;-64
2021/10/25 06:24:01;;;;;;;;;31.25;27.75;;;;;;;;5034894;28;45625;-67
2021/10/25 06:26:27;;;;;;;;;25.00;22.00;;;;;;;;5034368;28;45269;-67
2021/10/25 06:28:52;;;;;;;;;34.25;31.50;;;;;;;;5034358;28;45441;-66
2021/10/25 06:31:18;;;;;;;;;33.00;30.50;;;;;;;;5034412;28;45635;-67
2021/10/25 06:33:45;;;;;;;;;76.00;59.00;;;;;;;;5034269;28;46414;-68
2021/10/25 06:36:11;;;;;;;;;41.75;33.00;;;;;;;;5033805;28;45173;-68
2021/10/25 06:41:14;;;;;;;;;24.75;23.00;;;;;;;;5034339;28;45280;-66
2021/10/25 06:43:40;;;;;;;;;21.50;18.75;;;;;;;;5036075;28;46261;-66
2021/10/25 06:46:06;;;;;;;;;27.50;24.50;;;;;;;;5036708;28;45502;-66
2021/10/25 06:48:32;;;;;;;;;30.75;25.00;;;;;;;;5038051;28;45417;-66
2021/10/25 06:50:57;;;;;;;;;32.50;26.50;;;;;;;;5036394;28;45513;-67
2021/10/25 06:53:23;;;;;;;;;24.75;22.50;;;;;;;;5037579;28;46026;-69
2021/10/25 06:55:49;;;;;;;;;25.25;24.00;;;;;;;;5037382;28;45329;-68
2021/10/25 06:58:14;;;;;;;;;23.75;23.75;;;;;;;;5037782;28;45331;-65
2021/10/25 07:00:40;;;;;;;;;27.75;25.00;;;;;;;;5037609;28;45236;-65
2021/10/25 07:03:07;;;;;;;;;25.00;23.25;;;;;;;;5035411;28;47493;-65
2021/10/25 07:05:35;;;;;;;;;23.75;20.50;;;;;;;;5037805;28;45417;-67
2021/10/25 07:08:00;;;;;;;;;24.25;20.75;;;;;;;;5037581;28;45433;-66
2021/10/25 07:10:26;;;;;;;;;29.50;27.00;;;;;;;;5037423;28;45627;-67
2021/10/25 07:12:52;;;;;;;;;26.25;23.00;;;;;;;;5037082;28;45515;-66
2021/10/25 07:15:18;;;;;;;;;30.25;25.00;;;;;;;;5036831;28;45435;-66
2021/10/25 08:11:05;;;;;;;;;27.25;27.00;;;;;;;;5038187;28;45330;-66
2021/10/25 08:13:38;;;;;;;;;31.50;29.50;;;;;;;;5037722;28;45451;-68
2021/10/25 08:16:10;;;;;;;;;31.75;29.75;;;;;;;;5036954;28;45363;-69
2021/10/25 08:19:22;;;;;;;;;30.75;27.75;;;;;;;;5037500;28;45456;-67
2021/10/25 08:21:27;;;;;;;;;32.00;29.75;;;;;;;;5034256;28;45509;-67
2021/10/25 08:23:53;;;;;;;;;32.25;28.75;;;;;;;;5036549;28;45331;-67
2021/10/25 08:26:18;;;;;;;;;33.50;26.75;;;;;;;;5036264;28;45314;-65
2021/10/25 08:28:44;;;;;;;;;38.75;31.50;;;;;;;;5035346;28;45273;-68
2021/10/25 08:31:11;;;;;;;;;34.25;30.25;;;;;;;;5036949;28;45250;-67
2021/10/25 08:41:23;;;;;;;;;33.75;29.50;;;;;;;;5035884;28;45442;-68
2021/10/25 08:43:51;;;;;;;;;36.00;31.25;;;;;;;;5035880;28;45286;-69
2021/10/25 08:46:17;;;;;;;;;35.25;32.00;;;;;;;;5034143;28;48444;-70
2021/10/25 08:48:43;;;;;;;;;31.75;30.00;;;;;;;;5034392;28;45277;-67
2021/10/25 08:51:08;;;;;;;;;35.00;32.75;;;;;;;;5036345;28;45358;-67
2021/10/25 08:53:33;;;;;;;;;28.50;27.00;;;;;;;;5036032;28;45306;-65
2021/10/25 08:55:59;;;;;;;;;30.25;28.00;;;;;;;;5017327;28;46845;-68
2021/10/25 08:58:24;;;;;;;;;45.00;36.50;;;;;;;;5035749;28;45226;-67
2021/10/25 09:00:51;;;;;;;;;35.75;30.50;;;;;;;;5034350;28;45439;-67
2021/10/25 09:03:17;;;;;;;;;37.75;30.00;;;;;;;;5034417;28;45445;-68
2021/10/25 09:05:53;;;;;;;;;38.75;34.50;;;;;;;;5034329;28;46203;-66
2021/10/25 09:08:19;;;;;;;;;35.00;26.75;;;;;;;;5035876;28;45305;-70
2021/10/25 09:10:45;;;;;;;;;34.25;25.75;;;;;;;;5035489;28;45254;-68
2021/10/25 09:13:18;;;;;;;;;36.00;29.25;;;;;;;;5036014;28;45161;-65
2021/10/25 09:15:45;;;;;;;;;41.50;34.00;;;;;;;;5035262;28;45690;-68
2021/10/25 09:18:13;;;;;;;;;28.50;28.00;;;;;;;;5035949;28;45258;-69
2021/10/25 09:20:44;;;;;;;;;41.00;31.25;;;;;;;;5035875;28;45324;-67
2021/10/25 09:23:13;;;;;;;;;30.75;28.00;;;;;;;;5036224;28;45561;-66
2021/10/25 09:25:39;;;;;;;;;41.00;37.25;;;;;;;;5035839;28;46359;-68
2021/10/25 09:28:26;;;;;;;;;33.00;26.75;;;;;;;;5034084;28;45265;-68
2021/10/25 09:30:53;;;;;;;;;34.50;32.25;;;;;;;;5035590;28;45374;-68
2021/10/25 09:33:22;;;;;;;;;39.75;31.50;;;;;;;;5035245;28;45403;-67
2021/10/25 09:35:53;;;;;;;;;37.50;32.25;;;;;;;;5033183;28;47755;-66
2021/10/25 09:38:28;;;;;;;;;33.00;30.25;;;;;;;;5035356;28;45433;-67
2021/10/25 09:51:25;;;;;;;;;36.25;32.75;;;;;;;;4992823;28;45327;-67
2021/10/25 09:53:57;;;;;;;;;31.00;27.50;;;;;;;;5025768;28;45280;-67
2021/10/25 09:56:28;;;;;;;;;29.50;26.25;;;;;;;;5032943;28;47264;-66
2021/10/25 09:59:07;;;;;;;;;37.75;30.50;;;;;;;;5033259;28;45379;-66
2021/10/25 10:01:33;;;;;;;;;39.25;35.00;;;;;;;;5034587;28;45275;-68
2021/10/25 10:03:59;;;;;;;;;34.00;29.00;;;;;;;;5034890;28;45359;-67
2021/10/25 10:06:24;;;;;;;;;36.00;31.00;;;;;;;;5034442;28;45449;-68
2021/10/25 10:08:50;;;;;;;;;34.75;32.75;;;;;;;;5034331;28;45417;-67
2021/10/25 10:11:16;;;;;;;;;37.00;32.75;;;;;;;;5034318;28;45290;-67
2021/10/25 10:13:42;;;;;;;;;40.75;34.50;;;;;;;;5034211;28;45450;-66
2021/10/25 10:16:07;;;;;;;;;45.00;36.00;;;;;;;;5034997;28;47194;-68
2021/10/25 10:18:33;;;;;;;;;42.00;34.25;;;;;;;;5035587;28;46283;-68
2021/10/25 10:21:04;;;;;;;;;39.00;32.75;;;;;;;;5038378;28;45263;-67
2021/10/25 10:23:31;;;;;;;;;44.00;35.25;;;;;;;;5038477;28;45300;-68
2021/10/25 10:25:59;;;;;;;;;46.75;38.25;;;;;;;;5038537;28;46247;-66
2021/10/25 10:28:37;;;;;;;;;40.50;30.25;;;;;;;;5037062;28;45472;-67
2021/10/25 10:31:04;;;;;;;;;36.50;32.75;;;;;;;;5038634;28;45386;-67
2021/10/25 10:33:40;;;;;;;;;32.50;30.75;;;;;;;;5037896;28;45508;-67
2021/10/25 10:36:14;;;;;;;;;33.00;31.75;;;;;;;;5037572;28;45402;-68
2021/10/25 10:39:04;;;;;;;;;36.25;29.75;;;;;;;;5037653;28;45248;-67
2021/10/25 10:41:36;;;;;;;;;35.75;31.50;;;;;;;;5037315;28;45235;-68
2021/10/25 10:44:04;;;;;;;;;31.50;26.00;;;;;;;;5037678;28;45483;-67
2021/10/25 10:46:54;;;;;;;;;30.75;27.00;;;;;;;;5037573;28;45425;-69
2021/10/25 10:49:30;;;;;;;;;32.25;27.25;;;;;;;;5037362;28;45475;-69
2021/10/25 10:52:04;;;;;;;;;28.00;26.25;;;;;;;;5037849;28;45340;-67
2021/10/25 10:54:39;;;;;;;;;32.75;30.25;;;;;;;;5037603;28;45450;-67
2021/10/25 10:57:20;;;;;;;;;30.75;27.25;;;;;;;;5037472;28;46158;-69
2021/10/25 10:59:50;;;;;;;;;26.75;24.25;;;;;;;;5036107;28;45702;-67
2021/10/25 11:02:18;;;;;;;;;33.25;29.00;;;;;;;;5037807;28;45357;-66
2021/10/25 11:04:44;;;;;;;;;31.25;28.50;;;;;;;;5037862;28;45215;-69
2021/10/25 11:07:09;;;;;;;;;44.50;33.50;;;;;;;;5035860;28;47042;-68
2021/10/25 11:09:35;;;;;;;;;33.75;31.25;;;;;;;;5037123;28;45643;-68
2021/10/25 11:12:01;;;;;;;;;30.75;26.25;;;;;;;;5037322;28;45299;-67
2021/10/25 11:14:29;;;;;;;;;35.50;30.25;;;;;;;;5037178;28;45691;-67
2021/10/25 11:17:13;;;;;;;;;40.50;35.75;;;;;;;;5036815;28;45391;-67
2021/10/25 11:19:46;;;;;;;;;29.00;25.25;;;;;;;;5037128;28;45471;-68
2021/10/25 11:22:11;;;;;;;;;31.25;27.50;;;;;;;;5036886;28;45352;-67
2021/10/25 11:24:36;;;;;;;;;25.75;23.00;;;;;;;;5037098;28;45687;-66
2021/10/25 11:27:02;;;;;;;;;29.50;23.50;;;;;;;;5036967;28;46248;-69
2021/10/25 11:29:33;;;;;;;;;20.25;18.25;;;;;;;;5034184;28;45839;-66
2021/10/25 11:32:01;;;;;;;;;20.50;19.25;;;;;;;;5036932;28;45228;-68
2021/10/25 11:34:29;;;;;;;;;15.00;13.00;;;;;;;;5034977;28;45423;-67
2021/10/25 11:36:54;;;;;;;;;19.75;17.50;;;;;;;;5036676;28;45482;-67
2021/10/25 11:39:27;;;;;;;;;20.00;16.25;;;;;;;;5035091;28;45374;-67
2021/10/25 11:41:52;;;;;;;;;18.75;18.25;;;;;;;;5035891;28;45414;-68
2021/10/25 11:44:18;;;;;;;;;20.50;17.25;;;;;;;;5037009;28;45929;-69
2021/10/25 11:46:43;;;;;;;;;20.75;18.75;;;;;;;;5036421;28;45938;-68
2021/10/25 11:49:10;;;;;;;;;20.50;19.00;;;;;;;;5034875;28;45731;-69
2021/10/25 11:51:45;;;;;;;;;27.25;22.00;;;;;;;;5036333;28;45371;-67
2021/10/25 11:54:10;;;;;;;;;21.75;18.75;;;;;;;;5036326;28;45534;-68
2021/10/25 11:56:36;;;;;;;;;19.75;19.75;;;;;;;;5036100;28;46009;-65
2021/10/25 11:59:01;;;;;;;;;22.00;20.25;;;;;;;;5036231;28;45413;-67
2021/10/25 12:01:28;;;;;;;;;21.00;19.00;;;;;;;;5036416;28;45382;-67
2021/10/25 12:03:53;;;;;;;;;15.25;14.00;;;;;;;;5036698;28;45304;-67
2021/10/25 12:06:20;;;;;;;;;16.75;15.50;;;;;;;;5035054;28;46180;-66
2021/10/25 12:08:58;;;;;;;;;18.50;16.00;;;;;;;;5036668;28;45381;-67
2021/10/25 12:11:53;;;;;;;;;21.25;19.25;;;;;;;;5036202;28;45347;-68
2021/10/25 12:14:19;;;;;;;;;19.75;16.75;;;;;;;;5036232;28;45592;-67
2021/10/25 12:16:48;;;;;;;;;19.50;17.75;;;;;;;;5036351;28;45380;-67
2021/10/25 12:19:13;;;;;;;;;17.25;16.50;;;;;;;;5036179;28;45207;-68
2021/10/25 12:21:39;;;;;;;;;20.25;19.00;;;;;;;;5036350;28;45233;-67
2021/10/25 12:24:09;;;;;;;;;17.75;15.00;;;;;;;;5036360;28;45401;-66
2021/10/25 12:26:35;;;;;;;;;20.50;15.50;;;;;;;;5036073;28;46545;-66
2021/10/25 12:29:00;;;;;;;;;18.75;14.75;;;;;;;;5034735;28;45590;-68
2021/10/25 12:31:27;;;;;;;;;17.25;16.00;;;;;;;;5036078;28;45313;-69
2021/10/25 12:34:00;;;;;;;;;18.50;17.25;;;;;;;;5035984;28;45347;-69
2021/10/25 12:36:25;;;;;;;;;23.75;20.75;;;;;;;;5035349;28;47938;-67
2021/10/25 12:38:51;;;;;;;;;24.00;18.75;;;;;;;;5035707;28;45717;-65
2021/10/25 12:41:17;;;;;;;;;22.50;19.75;;;;;;;;5034547;28;45381;-67
2021/10/25 12:43:44;;;;;;;;;17.25;16.00;;;;;;;;5035766;28;45207;-67
2021/10/25 12:46:10;;;;;;;;;20.00;14.75;;;;;;;;5035531;28;46459;-66
2021/10/25 12:48:45;;;;;;;;;22.00;19.25;;;;;;;;5034099;28;45414;-66
2021/10/25 12:51:10;;;;;;;;;17.75;16.00;;;;;;;;5035581;28;45429;-65
2021/10/25 12:53:40;;;;;;;;;20.50;19.00;;;;;;;;5035805;28;45326;-65
2021/10/25 12:56:06;;;;;;;;;21.25;18.00;;;;;;;;5034090;28;45640;-68
2021/10/25 12:58:31;;;;;;;;;19.00;17.25;;;;;;;;5035904;28;45230;-68
2021/10/25 13:01:06;;;;;;;;;14.25;11.25;;;;;;;;5034630;28;45705;-66
2021/10/25 13:03:31;;;;;;;;;17.50;15.00;;;;;;;;5036034;28;45150;-67
2021/10/25 13:06:04;;;;;;;;;22.50;17.00;;;;;;;;5035286;28;46208;-66
2021/10/25 13:08:29;;;;;;;;;16.75;15.00;;;;;;;;5035577;28;45567;-68
2021/10/25 13:10:55;;;;;;;;;13.75;13.75;;;;;;;;5035220;28;45228;-66
2021/10/25 13:13:25;;;;;;;;;15.25;14.25;;;;;;;;5035930;28;45478;-66
2021/10/25 13:15:51;;;;;;;;;17.25;16.25;;;;;;;;5034178;28;48255;-68
2021/10/25 13:18:19;;;;;;;;;19.25;16.75;;;;;;;;5033837;28;45440;-66
2021/10/25 13:20:48;;;;;;;;;18.25;18.00;;;;;;;;5034128;28;45453;-66
2021/10/25 13:23:14;;;;;;;;;20.75;15.25;;;;;;;;5035580;28;45565;-67
2021/10/25 13:25:41;;;;;;;;;26.00;22.00;;;;;;;;5035047;28;45340;-67
2021/10/25 13:28:08;;;;;;;;;16.50;14.50;;;;;;;;5033491;28;46205;-66
2021/10/25 13:30:33;;;;;;;;;11.50;11.00;;;;;;;;5033590;28;45379;-68
2021/10/25 13:32:59;;;;;;;;;16.75;14.50;;;;;;;;5034977;28;45525;-67
2021/10/25 13:35:24;;;;;;;;;14.00;12.50;;;;;;;;5035036;28;46136;-67
2021/10/25 13:37:52;;;;;;;;;14.00;12.00;;;;;;;;5034064;28;45303;-66
2021/10/25 13:40:18;;;;;;;;;14.75;13.00;;;;;;;;5035195;28;45335;-67
2021/10/25 13:42:43;;;;;;;;;5.75;4.50;;;;;;;;5035251;28;45365;-66
2021/10/25 13:45:09;;;;;;;;;13.00;12.25;;;;;;;;5034900;28;46491;-66
2021/10/25 13:47:34;;;;;;;;;19.00;15.50;;;;;;;;5035046;28;45425;-67
2021/10/25 13:50:00;;;;;;;;;16.75;14.25;;;;;;;;5033841;28;45446;-67
2021/10/25 13:52:25;;;;;;;;;14.25;13.50;;;;;;;;5034552;28;45501;-66
2021/10/25 13:54:51;;;;;;;;;16.50;16.50;;;;;;;;5033879;28;46816;-67
2021/10/25 13:57:21;;;;;;;;;14.75;14.25;;;;;;;;5035335;28;45443;-67
2021/10/25 13:59:47;;;;;;;;;16.50;14.75;;;;;;;;5034928;28;45291;-67
2021/10/25 14:02:14;;;;;;;;;18.00;16.50;;;;;;;;5033409;28;45205;-66
2021/10/25 14:04:46;;;;;;;;;15.25;12.00;;;;;;;;5034361;28;46372;-66
2021/10/25 14:07:17;;;;;;;;;18.00;14.75;;;;;;;;5034729;28;45243;-66
2021/10/25 14:09:44;;;;;;;;;15.00;9.25;;;;;;;;5033014;28;45365;-68
2021/10/25 14:12:09;;;;;;;;;13.75;13.00;;;;;;;;5035013;28;45585;-65
2021/10/25 14:14:36;;;;;;;;;11.75;10.75;;;;;;;;5034135;28;46166;-69
2021/10/25 14:17:02;;;;;;;;;10.00;9.75;;;;;;;;5034437;28;45246;-67
2021/10/25 14:19:28;;;;;;;;;12.75;11.00;;;;;;;;5034414;28;45302;-68
2021/10/25 14:21:54;;;;;;;;;8.00;8.00;;;;;;;;5034754;28;45175;-68
2021/10/25 14:24:20;;;;;;;;;13.25;12.00;;;;;;;;5034108;28;45220;-67
2021/10/25 14:26:46;;;;;;;;;17.25;11.50;;;;;;;;5032992;28;45251;-67
2021/10/25 14:29:12;;;;;;;;;17.50;13.25;;;;;;;;5033252;28;45903;-67
2021/10/25 14:31:38;;;;;;;;;23.00;15.50;;;;;;;;5034443;28;45482;-67
2021/10/25 14:34:05;;;;;;;;;11.00;10.00;;;;;;;;5016220;28;48668;-68
2021/10/25 14:36:31;;;;;;;;;16.75;14.50;;;;;;;;5034029;28;45396;-66
2021/10/25 14:39:07;;;;;;;;;15.50;14.50;;;;;;;;5033047;28;45463;-67
2021/10/25 14:44:10;;;;;;;;;16.25;12.25;;;;;;;;5032502;28;45240;-68
2021/10/25 14:54:31;;;;;;;;;17.00;17.00;;;;;;;;5034011;28;45330;-68
2021/10/25 14:56:58;;;;;;;;;15.25;14.00;;;;;;;;5034260;28;45449;-68
2021/10/25 14:59:23;;;;;;;;;15.75;13.75;;;;;;;;5034408;28;45331;-67
2021/10/25 15:01:49;;;;;;;;;22.00;17.75;;;;;;;;5032935;28;45422;-67
2021/10/25 15:04:18;;;;;;;;;16.25;14.00;;;;;;;;5035438;28;46097;-66
2021/10/25 15:06:43;;;;;;;;;18.75;15.50;;;;;;;;5035972;28;45393;-66
2021/10/25 15:09:09;;;;;;;;;19.75;15.50;;;;;;;;5037204;28;45321;-68
2021/10/25 15:11:34;;;;;;;;;26.25;21.00;;;;;;;;5037778;28;45132;-65
2021/10/25 15:13:59;;;;;;;;;23.50;20.00;;;;;;;;5037291;28;45327;-66
2021/10/25 15:16:25;;;;;;;;;21.75;20.00;;;;;;;;5036167;28;45434;-67
2021/10/25 15:18:51;;;;;;;;;14.25;13.50;;;;;;;;5037399;28;45208;-68
2021/10/25 15:21:17;;;;;;;;;17.00;14.50;;;;;;;;5037214;28;45265;-67
2021/10/25 15:23:42;;;;;;;;;14.50;13.00;;;;;;;;5036926;28;47025;-68
2021/10/25 15:26:08;;;;;;;;;16.50;16.50;;;;;;;;5036833;28;45394;-67
2021/10/25 15:28:33;;;;;;;;;15.25;14.50;;;;;;;;5037170;28;45327;-67
2021/10/25 15:30:59;;;;;;;;;12.50;11.25;;;;;;;;5037481;28;45595;-68
2021/10/25 15:33:24;;;;;;;;;15.75;12.25;;;;;;;;5036856;28;46445;-66
2021/10/25 15:35:53;;;;;;;;;12.00;11.25;;;;;;;;5036632;28;45542;-67
2021/10/25 15:38:19;;;;;;;;;18.00;16.00;;;;;;;;5036935;28;45180;-69
2021/10/25 15:40:44;;;;;;;;;12.25;12.25;;;;;;;;5036895;28;45314;-68
2021/10/25 15:43:09;;;;;;;;;16.25;11.50;;;;;;;;5036694;28;46130;-67
2021/10/25 15:45:35;;;;;;;;;11.75;11.75;;;;;;;;5036172;28;45243;-65
2021/10/25 15:48:00;;;;;;;;;13.25;10.00;;;;;;;;5037039;28;45360;-68
2021/10/25 15:50:25;;;;;;;;;16.25;14.75;;;;;;;;5037190;28;45445;-69
2021/10/25 15:52:51;;;;;;;;;16.00;14.50;;;;;;;;5036473;28;45567;-68
2021/10/25 15:55:16;;;;;;;;;10.00;8.75;;;;;;;;5036237;28;45374;-67
2021/10/25 15:57:42;;;;;;;;;14.00;11.25;;;;;;;;5036524;28;45361;-67
2021/10/25 16:00:09;;;;;;;;;11.00;9.75;;;;;;;;5036941;28;45362;-69
2021/10/25 16:02:35;;;;;;;;;15.00;11.25;;;;;;;;5034687;28;48159;-67
2021/10/25 16:05:01;;;;;;;;;13.75;11.25;;;;;;;;5036428;28;45276;-66
2021/10/25 16:07:26;;;;;;;;;10.00;10.00;;;;;;;;5036697;28;45435;-67
2021/10/25 16:09:51;;;;;;;;;13.75;11.50;;;;;;;;5036803;28;45191;-64
2021/10/25 16:12:18;;;;;;;;;14.75;13.25;;;;;;;;5036327;28;45846;-67
2021/10/25 16:14:44;;;;;;;;;11.25;8.75;;;;;;;;5036025;28;45240;-67
2021/10/25 16:17:11;;;;;;;;;15.50;10.25;;;;;;;;5034380;28;45335;-70
2021/10/25 16:19:36;;;;;;;;;9.50;8.75;;;;;;;;5036440;28;45502;-68